sensor_id;sensor_type;location;lat;lon;timestamp;temperature;humidity
33717;DHT22;20046;50.746;7.072;2023-03-31T00:01:29;12.20;99.90
33717;DHT22;20046;50.746;7.072;2023-03-31T00:03:55;12.10;99.90
33717;DHT22;20046;50.746;7.072;2023-03-31T00:06:29;12.10;99.90
33717;DHT22;20046;50.746;7.072;2023-03-31T00:08:55;12.10;99.90
33717;DHT22;20046;50.746;7.072;2023-03-31T00:11:26;12.10;99.90
33717;DHT22;20046;50.746;7.072;2023-03-31T00:13:51;12.00;99.90
33717;DHT22;20046;50.746;7.072;2023-03-31T00:16:17;12.00;99.90
33717;DHT22;20046;50.746;7.072;2023-03-31T00:18:43;12.00;99.90
33717;DHT22;20046;50.746;7.072;2023-03-31T00:21:12;11.90;99.90
33717;DHT22;20046;50.746;7.072;2023-03-31T00:23:52;11.80;99.90
33717;DHT22;20046;50.746;7.072;2023-03-31T00:26:18;11.80;99.90
33717;DHT22;20046;50.746;7.072;2023-03-31T00:28:43;11.80;99.90
33717;DHT22;20046;50.746;7.072;2023-03-31T00:31:09;11.80;99.90
33717;DHT22;20046;50.746;7.072;2023-03-31T00:33:34;11.80;99.90
33717;DHT22;20046;50.746;7.072;2023-03-31T00:36:00;11.80;99.90
33717;DHT22;20046;50.746;7.072;2023-03-31T00:38:27;11.80;99.90
33717;DHT22;20046;50.746;7.072;2023-03-31T00:40:53;11.80;99.90
33717;DHT22;20046;50.746;7.072;2023-03-31T00:46:01;11.70;99.90
33717;DHT22;20046;50.746;7.072;2023-03-31T00:48:27;11.70;99.90
33717;DHT22;20046;50.746;7.072;2023-03-31T00:50:54;11.70;99.90
33717;DHT22;20046;50.746;7.072;2023-03-31T00:53:21;11.60;99.90
33717;DHT22;20046;50.746;7.072;2023-03-31T00:55:49;11.60;99.90
33717;DHT22;20046;50.746;7.072;2023-03-31T00:58:16;11.60;99.90
33717;DHT22;20046;50.746;7.072;2023-03-31T01:00:45;11.60;99.90
33717;DHT22;20046;50.746;7.072;2023-03-31T01:03:12;11.50;99.90
33717;DHT22;20046;50.746;7.072;2023-03-31T01:05:54;11.50;99.90
33717;DHT22;20046;50.746;7.072;2023-03-31T01:08:22;11.50;99.90
33717;DHT22;20046;50.746;7.072;2023-03-31T01:10:55;11.50;99.90
33717;DHT22;20046;50.746;7.072;2023-03-31T01:13:22;11.60;99.90
33717;DHT22;20046;50.746;7.072;2023-03-31T01:15:48;11.60;99.90
33717;DHT22;20046;50.746;7.072;2023-03-31T01:18:14;11.50;99.90
33717;DHT22;20046;50.746;7.072;2023-03-31T01:41:47;11.70;99.90
33717;DHT22;20046;50.746;7.072;2023-03-31T01:46:42;11.80;99.90
33717;DHT22;20046;50.746;7.072;2023-03-31T01:56:45;11.90;99.90
33717;DHT22;20046;50.746;7.072;2023-03-31T01:59:15;11.90;99.90
33717;DHT22;20046;50.746;7.072;2023-03-31T02:01:50;11.90;99.90
33717;DHT22;20046;50.746;7.072;2023-03-31T02:04:20;11.90;99.90
33717;DHT22;20046;50.746;7.072;2023-03-31T02:06:48;11.90;99.90
33717;DHT22;20046;50.746;7.072;2023-03-31T02:09:21;11.80;99.90
33717;DHT22;20046;50.746;7.072;2023-03-31T02:11:47;11.80;99.90
33717;DHT22;20046;50.746;7.072;2023-03-31T02:14:14;11.70;99.90
33717;DHT22;20046;50.746;7.072;2023-03-31T02:16:43;11.70;99.90
33717;DHT22;20046;50.746;7.072;2023-03-31T02:19:12;11.70;99.90
33717;DHT22;20046;50.746;7.072;2023-03-31T02:21:43;11.70;99.90
33717;DHT22;20046;50.746;7.072;2023-03-31T02:24:10;11.70;99.90
33717;DHT22;20046;50.746;7.072;2023-03-31T02:26:37;11.70;99.90
33717;DHT22;20046;50.746;7.072;2023-03-31T02:29:04;11.60;99.90
33717;DHT22;20046;50.746;7.072;2023-03-31T02:33:58;11.60;99.90
33717;DHT22;20046;50.746;7.072;2023-03-31T02:36:24;11.50;99.90
33717;DHT22;20046;50.746;7.072;2023-03-31T02:38:54;11.50;99.90
33717;DHT22;20046;50.746;7.072;2023-03-31T02:41:20;11.50;99.90
33717;DHT22;20046;50.746;7.072;2023-03-31T02:43:46;11.50;99.90
33717;DHT22;20046;50.746;7.072;2023-03-31T02:46:12;11.40;99.90
33717;DHT22;20046;50.746;7.072;2023-03-31T02:48:38;11.50;99.90
33717;DHT22;20046;50.746;7.072;2023-03-31T02:56:02;11.50;99.90
33717;DHT22;20046;50.746;7.072;2023-03-31T02:58:43;11.40;99.90
33717;DHT22;20046;50.746;7.072;2023-03-31T03:06:55;11.50;99.90
33717;DHT22;20046;50.746;7.072;2023-03-31T03:15:12;11.60;99.90
33717;DHT22;20046;50.746;7.072;2023-03-31T03:17:41;11.50;99.90
33717;DHT22;20046;50.746;7.072;2023-03-31T03:20:08;11.60;99.90
33717;DHT22;20046;50.746;7.072;2023-03-31T03:22:35;11.60;99.90
33717;DHT22;20046;50.746;7.072;2023-03-31T03:25:02;11.60;99.90
33717;DHT22;20046;50.746;7.072;2023-03-31T03:27:27;11.60;99.90
33717;DHT22;20046;50.746;7.072;2023-03-31T03:29:53;11.60;99.90
33717;DHT22;20046;50.746;7.072;2023-03-31T03:32:18;11.60;99.90
33717;DHT22;20046;50.746;7.072;2023-03-31T03:34:44;11.60;99.90
33717;DHT22;20046;50.746;7.072;2023-03-31T03:37:10;11.60;99.90
33717;DHT22;20046;50.746;7.072;2023-03-31T03:39:35;11.60;99.90
33717;DHT22;20046;50.746;7.072;2023-03-31T03:42:01;11.60;99.90
33717;DHT22;20046;50.746;7.072;2023-03-31T03:44:26;11.60;99.90
33717;DHT22;20046;50.746;7.072;2023-03-31T03:46:52;11.60;99.90
33717;DHT22;20046;50.746;7.072;2023-03-31T03:49:18;11.60;99.90
33717;DHT22;20046;50.746;7.072;2023-03-31T03:51:43;11.60;99.90
33717;DHT22;20046;50.746;7.072;2023-03-31T03:54:08;11.60;99.90
33717;DHT22;20046;50.746;7.072;2023-03-31T03:56:34;11.60;99.90
33717;DHT22;20046;50.746;7.072;2023-03-31T03:59:00;11.60;99.90
33717;DHT22;20046;50.746;7.072;2023-03-31T04:01:25;11.60;99.90
33717;DHT22;20046;50.746;7.072;2023-03-31T04:03:51;11.60;99.90
33717;DHT22;20046;50.746;7.072;2023-03-31T04:06:16;11.60;99.90
33717;DHT22;20046;50.746;7.072;2023-03-31T04:08:42;11.60;99.90
33717;DHT22;20046;50.746;7.072;2023-03-31T04:11:14;11.60;99.90
33717;DHT22;20046;50.746;7.072;2023-03-31T04:13:41;11.60;99.90
33717;DHT22;20046;50.746;7.072;2023-03-31T04:16:07;11.60;99.90
33717;DHT22;20046;50.746;7.072;2023-03-31T04:18:33;11.60;99.90
33717;DHT22;20046;50.746;7.072;2023-03-31T04:21:01;11.60;99.90
33717;DHT22;20046;50.746;7.072;2023-03-31T04:23:33;11.60;99.90
33717;DHT22;20046;50.746;7.072;2023-03-31T04:26:02;11.50;99.90
33717;DHT22;20046;50.746;7.072;2023-03-31T04:28:33;11.50;99.90
33717;DHT22;20046;50.746;7.072;2023-03-31T04:30:59;11.50;99.90
33717;DHT22;20046;50.746;7.072;2023-03-31T04:33:25;11.50;99.90
33717;DHT22;20046;50.746;7.072;2023-03-31T04:35:51;11.40;99.90
33717;DHT22;20046;50.746;7.072;2023-03-31T04:38:20;11.40;99.90
33717;DHT22;20046;50.746;7.072;2023-03-31T04:40:46;11.40;99.90
33717;DHT22;20046;50.746;7.072;2023-03-31T04:43:12;11.40;99.90
33717;DHT22;20046;50.746;7.072;2023-03-31T04:45:38;11.40;99.90
33717;DHT22;20046;50.746;7.072;2023-03-31T04:48:03;11.40;99.90
33717;DHT22;20046;50.746;7.072;2023-03-31T04:50:29;11.40;99.90
33717;DHT22;20046;50.746;7.072;2023-03-31T04:52:55;11.40;99.90
33717;DHT22;20046;50.746;7.072;2023-03-31T04:55:20;11.40;99.90
33717;DHT22;20046;50.746;7.072;2023-03-31T04:57:46;11.40;99.90
33717;DHT22;20046;50.746;7.072;2023-03-31T05:00:12;11.40;99.90
33717;DHT22;20046;50.746;7.072;2023-03-31T05:02:37;11.40;99.90
33717;DHT22;20046;50.746;7.072;2023-03-31T05:05:03;11.40;99.90
33717;DHT22;20046;50.746;7.072;2023-03-31T05:07:28;11.40;99.90
33717;DHT22;20046;50.746;7.072;2023-03-31T05:09:54;11.40;99.90
33717;DHT22;20046;50.746;7.072;2023-03-31T05:12:19;11.40;99.90
33717;DHT22;20046;50.746;7.072;2023-03-31T05:14:45;11.40;99.90
33717;DHT22;20046;50.746;7.072;2023-03-31T05:17:11;11.50;99.90
33717;DHT22;20046;50.746;7.072;2023-03-31T05:19:36;11.50;99.90
33717;DHT22;20046;50.746;7.072;2023-03-31T05:22:02;11.50;99.90
33717;DHT22;20046;50.746;7.072;2023-03-31T05:24:27;11.50;99.90
33717;DHT22;20046;50.746;7.072;2023-03-31T05:26:54;11.50;99.90
33717;DHT22;20046;50.746;7.072;2023-03-31T05:29:21;11.50;99.90
33717;DHT22;20046;50.746;7.072;2023-03-31T05:31:47;11.40;99.90
33717;DHT22;20046;50.746;7.072;2023-03-31T05:34:13;11.50;99.90
33717;DHT22;20046;50.746;7.072;2023-03-31T05:36:39;11.60;99.90
33717;DHT22;20046;50.746;7.072;2023-03-31T05:39:05;11.60;99.90
33717;DHT22;20046;50.746;7.072;2023-03-31T05:41:31;11.70;99.90
33717;DHT22;20046;50.746;7.072;2023-03-31T05:43:57;11.70;99.90
33717;DHT22;20046;50.746;7.072;2023-03-31T05:46:22;11.70;99.90
33717;DHT22;20046;50.746;7.072;2023-03-31T05:48:48;11.70;99.90
33717;DHT22;20046;50.746;7.072;2023-03-31T05:51:13;11.70;99.90
33717;DHT22;20046;50.746;7.072;2023-03-31T05:53:39;11.70;99.90
33717;DHT22;20046;50.746;7.072;2023-03-31T05:56:06;11.70;99.90
33717;DHT22;20046;50.746;7.072;2023-03-31T05:58:35;11.60;99.90
33717;DHT22;20046;50.746;7.072;2023-03-31T06:03:31;11.50;99.90
33717;DHT22;20046;50.746;7.072;2023-03-31T06:05:56;11.50;99.90
33717;DHT22;20046;50.746;7.072;2023-03-31T06:08:22;11.40;99.90
33717;DHT22;20046;50.746;7.072;2023-03-31T06:10:48;11.40;99.90
33717;DHT22;20046;50.746;7.072;2023-03-31T06:13:14;11.40;99.90
33717;DHT22;20046;50.746;7.072;2023-03-31T06:15:39;11.40;99.90
33717;DHT22;20046;50.746;7.072;2023-03-31T06:18:05;11.40;99.90
33717;DHT22;20046;50.746;7.072;2023-03-31T06:20:35;11.30;99.90
33717;DHT22;20046;50.746;7.072;2023-03-31T06:23:00;11.40;99.90
33717;DHT22;20046;50.746;7.072;2023-03-31T06:25:26;11.40;99.90
33717;DHT22;20046;50.746;7.072;2023-03-31T06:27:51;11.40;99.90
33717;DHT22;20046;50.746;7.072;2023-03-31T06:30:17;11.40;99.90
33717;DHT22;20046;50.746;7.072;2023-03-31T06:32:42;11.40;99.90
33717;DHT22;20046;50.746;7.072;2023-03-31T06:35:08;11.50;99.90
33717;DHT22;20046;50.746;7.072;2023-03-31T06:37:33;11.50;99.90
33717;DHT22;20046;50.746;7.072;2023-03-31T06:39:59;11.40;99.90
33717;DHT22;20046;50.746;7.072;2023-03-31T06:42:24;11.40;99.90
33717;DHT22;20046;50.746;7.072;2023-03-31T06:44:50;11.40;99.90
33717;DHT22;20046;50.746;7.072;2023-03-31T06:47:15;11.40;99.90
33717;DHT22;20046;50.746;7.072;2023-03-31T06:49:41;11.40;99.90
33717;DHT22;20046;50.746;7.072;2023-03-31T06:52:06;11.40;99.90
33717;DHT22;20046;50.746;7.072;2023-03-31T06:54:32;11.50;99.90
33717;DHT22;20046;50.746;7.072;2023-03-31T06:56:57;11.50;99.90
33717;DHT22;20046;50.746;7.072;2023-03-31T06:59:23;11.60;99.90
33717;DHT22;20046;50.746;7.072;2023-03-31T07:01:48;11.70;99.90
33717;DHT22;20046;50.746;7.072;2023-03-31T07:04:14;11.70;99.90
33717;DHT22;20046;50.746;7.072;2023-03-31T07:06:40;11.80;99.90
33717;DHT22;20046;50.746;7.072;2023-03-31T07:09:06;11.90;99.90
33717;DHT22;20046;50.746;7.072;2023-03-31T07:11:31;12.10;99.90
33717;DHT22;20046;50.746;7.072;2023-03-31T07:13:57;12.30;99.90
33717;DHT22;20046;50.746;7.072;2023-03-31T07:16:22;12.50;99.90
33717;DHT22;20046;50.746;7.072;2023-03-31T07:18:48;12.70;99.90
33717;DHT22;20046;50.746;7.072;2023-03-31T07:21:14;12.80;99.90
33717;DHT22;20046;50.746;7.072;2023-03-31T07:23:40;12.80;99.90
33717;DHT22;20046;50.746;7.072;2023-03-31T07:26:06;12.80;99.90
33717;DHT22;20046;50.746;7.072;2023-03-31T07:28:32;12.80;99.90
33717;DHT22;20046;50.746;7.072;2023-03-31T07:30:57;12.80;99.90
33717;DHT22;20046;50.746;7.072;2023-03-31T07:33:23;12.90;99.90
33717;DHT22;20046;50.746;7.072;2023-03-31T07:35:48;13.10;99.90
33717;DHT22;20046;50.746;7.072;2023-03-31T07:38:14;13.10;99.90
33717;DHT22;20046;50.746;7.072;2023-03-31T07:40:39;13.10;99.90
33717;DHT22;20046;50.746;7.072;2023-03-31T07:43:06;13.20;99.90
33717;DHT22;20046;50.746;7.072;2023-03-31T07:45:31;13.20;99.90
33717;DHT22;20046;50.746;7.072;2023-03-31T07:47:57;13.20;99.90
33717;DHT22;20046;50.746;7.072;2023-03-31T07:50:23;13.20;99.90
33717;DHT22;20046;50.746;7.072;2023-03-31T07:52:49;13.30;99.90
33717;DHT22;20046;50.746;7.072;2023-03-31T07:55:15;13.30;99.90
33717;DHT22;20046;50.746;7.072;2023-03-31T07:57:41;13.30;99.90
33717;DHT22;20046;50.746;7.072;2023-03-31T08:00:07;13.40;99.90
33717;DHT22;20046;50.746;7.072;2023-03-31T08:02:36;13.40;99.90
33717;DHT22;20046;50.746;7.072;2023-03-31T08:05:02;13.50;99.90
33717;DHT22;20046;50.746;7.072;2023-03-31T08:07:28;13.60;99.90
33717;DHT22;20046;50.746;7.072;2023-03-31T08:09:55;13.80;99.90
33717;DHT22;20046;50.746;7.072;2023-03-31T08:12:21;14.00;99.90
33717;DHT22;20046;50.746;7.072;2023-03-31T08:14:46;14.20;99.90
33717;DHT22;20046;50.746;7.072;2023-03-31T08:17:12;14.30;99.90
33717;DHT22;20046;50.746;7.072;2023-03-31T08:19:37;14.40;99.90
33717;DHT22;20046;50.746;7.072;2023-03-31T08:22:03;14.40;99.90
33717;DHT22;20046;50.746;7.072;2023-03-31T08:24:28;14.40;99.90
33717;DHT22;20046;50.746;7.072;2023-03-31T08:26:54;14.30;99.90
33717;DHT22;20046;50.746;7.072;2023-03-31T08:29:20;14.20;99.90
33717;DHT22;20046;50.746;7.072;2023-03-31T08:31:45;14.10;99.90
33717;DHT22;20046;50.746;7.072;2023-03-31T08:34:11;14.00;99.90
33717;DHT22;20046;50.746;7.072;2023-03-31T08:36:36;14.00;99.90
33717;DHT22;20046;50.746;7.072;2023-03-31T08:39:02;14.00;99.90
33717;DHT22;20046;50.746;7.072;2023-03-31T08:43:54;14.10;99.90
33717;DHT22;20046;50.746;7.072;2023-03-31T08:46:21;14.30;99.90
33717;DHT22;20046;50.746;7.072;2023-03-31T08:48:48;14.50;99.90
33717;DHT22;20046;50.746;7.072;2023-03-31T08:53:45;15.70;99.90
33717;DHT22;20046;50.746;7.072;2023-03-31T08:56:14;16.70;99.90
33717;DHT22;20046;50.746;7.072;2023-03-31T08:58:44;17.10;99.90
33717;DHT22;20046;50.746;7.072;2023-03-31T09:04:18;18.00;99.90
33717;DHT22;20046;50.746;7.072;2023-03-31T09:09:20;18.10;99.90
33717;DHT22;20046;50.746;7.072;2023-03-31T09:11:50;18.60;99.90
33717;DHT22;20046;50.746;7.072;2023-03-31T09:14:20;18.60;99.90
33717;DHT22;20046;50.746;7.072;2023-03-31T09:19:37;19.30;99.90
33717;DHT22;20046;50.746;7.072;2023-03-31T09:22:12;19.50;99.90
33717;DHT22;20046;50.746;7.072;2023-03-31T09:24:45;19.00;99.90
33717;DHT22;20046;50.746;7.072;2023-03-31T09:27:11;18.20;99.90
33717;DHT22;20046;50.746;7.072;2023-03-31T09:34:41;17.00;99.90
33717;DHT22;20046;50.746;7.072;2023-03-31T09:37:08;16.90;99.90
33717;DHT22;20046;50.746;7.072;2023-03-31T09:39:34;17.00;99.90
33717;DHT22;20046;50.746;7.072;2023-03-31T09:42:00;17.20;99.90
33717;DHT22;20046;50.746;7.072;2023-03-31T09:46:54;17.10;99.90
33717;DHT22;20046;50.746;7.072;2023-03-31T09:49:20;17.10;99.90
33717;DHT22;20046;50.746;7.072;2023-03-31T09:52:06;17.20;99.90
33717;DHT22;20046;50.746;7.072;2023-03-31T09:54:36;17.30;99.90
33717;DHT22;20046;50.746;7.072;2023-03-31T09:57:07;17.10;99.90
33717;DHT22;20046;50.746;7.072;2023-03-31T09:59:36;17.00;99.90
33717;DHT22;20046;50.746;7.072;2023-03-31T10:02:03;16.80;99.90
33717;DHT22;20046;50.746;7.072;2023-03-31T10:04:31;16.70;99.90
33717;DHT22;20046;50.746;7.072;2023-03-31T10:06:57;16.50;99.90
33717;DHT22;20046;50.746;7.072;2023-03-31T10:09:24;16.40;99.90
33717;DHT22;20046;50.746;7.072;2023-03-31T10:11:54;16.20;99.90
33717;DHT22;20046;50.746;7.072;2023-03-31T10:14:23;16.00;99.90
33717;DHT22;20046;50.746;7.072;2023-03-31T10:16:49;15.80;99.90
33717;DHT22;20046;50.746;7.072;2023-03-31T10:19:21;15.70;99.90
33717;DHT22;20046;50.746;7.072;2023-03-31T10:21:48;15.50;99.90
33717;DHT22;20046;50.746;7.072;2023-03-31T10:24:19;15.30;99.90
33717;DHT22;20046;50.746;7.072;2023-03-31T10:26:48;15.10;99.90
33717;DHT22;20046;50.746;7.072;2023-03-31T10:29:14;15.00;99.90
33717;DHT22;20046;50.746;7.072;2023-03-31T10:31:42;14.90;99.90
33717;DHT22;20046;50.746;7.072;2023-03-31T10:34:11;14.80;99.90
33717;DHT22;20046;50.746;7.072;2023-03-31T10:36:37;14.60;99.90
33717;DHT22;20046;50.746;7.072;2023-03-31T10:39:04;14.40;99.90
33717;DHT22;20046;50.746;7.072;2023-03-31T10:41:30;14.30;99.90
33717;DHT22;20046;50.746;7.072;2023-03-31T10:43:56;14.20;99.90
33717;DHT22;20046;50.746;7.072;2023-03-31T10:49:23;14.00;99.90
33717;DHT22;20046;50.746;7.072;2023-03-31T10:51:58;13.60;99.90
33717;DHT22;20046;50.746;7.072;2023-03-31T10:54:25;13.70;99.90
33717;DHT22;20046;50.746;7.072;2023-03-31T10:56:51;14.60;99.90
33717;DHT22;20046;50.746;7.072;2023-03-31T11:07:05;15.70;99.90
33717;DHT22;20046;50.746;7.072;2023-03-31T11:12:11;15.10;99.90
33717;DHT22;20046;50.746;7.072;2023-03-31T11:14:42;14.80;99.90
33717;DHT22;20046;50.746;7.072;2023-03-31T11:19:44;14.30;99.90
33717;DHT22;20046;50.746;7.072;2023-03-31T11:22:19;14.10;99.90
33717;DHT22;20046;50.746;7.072;2023-03-31T11:30:09;14.40;99.90
33717;DHT22;20046;50.746;7.072;2023-03-31T11:40:33;15.00;99.90
33717;DHT22;20046;50.746;7.072;2023-03-31T11:43:02;15.10;99.90
33717;DHT22;20046;50.746;7.072;2023-03-31T11:45:39;15.10;99.90
33717;DHT22;20046;50.746;7.072;2023-03-31T11:48:16;15.00;99.90
33717;DHT22;20046;50.746;7.072;2023-03-31T11:50:43;14.90;99.90
33717;DHT22;20046;50.746;7.072;2023-03-31T11:53:16;14.80;99.90
33717;DHT22;20046;50.746;7.072;2023-03-31T11:55:42;14.70;99.90
33717;DHT22;20046;50.746;7.072;2023-03-31T12:00:41;14.50;99.90
33717;DHT22;20046;50.746;7.072;2023-03-31T12:05:37;14.30;99.90
33717;DHT22;20046;50.746;7.072;2023-03-31T12:12:59;13.70;99.90
33717;DHT22;20046;50.746;7.072;2023-03-31T12:15:34;13.50;99.90
33717;DHT22;20046;50.746;7.072;2023-03-31T12:18:02;13.40;99.90
33717;DHT22;20046;50.746;7.072;2023-03-31T12:20:33;13.50;99.90
33717;DHT22;20046;50.746;7.072;2023-03-31T12:23:02;13.80;99.90
33717;DHT22;20046;50.746;7.072;2023-03-31T12:25:44;13.90;99.90
33717;DHT22;20046;50.746;7.072;2023-03-31T12:28:12;14.10;99.90
33717;DHT22;20046;50.746;7.072;2023-03-31T12:30:38;14.30;99.90
33717;DHT22;20046;50.746;7.072;2023-03-31T12:43:10;14.70;99.90
33717;DHT22;20046;50.746;7.072;2023-03-31T12:45:46;14.80;99.90
33717;DHT22;20046;50.746;7.072;2023-03-31T12:56:04;15.30;99.90
33717;DHT22;20046;50.746;7.072;2023-03-31T13:01:02;16.00;99.90
33717;DHT22;20046;50.746;7.072;2023-03-31T13:06:00;16.30;99.90
33717;DHT22;20046;50.746;7.072;2023-03-31T13:11:11;16.20;99.90
33717;DHT22;20046;50.746;7.072;2023-03-31T13:13:39;16.00;99.90
33717;DHT22;20046;50.746;7.072;2023-03-31T13:16:05;15.90;99.90
33717;DHT22;20046;50.746;7.072;2023-03-31T13:18:32;15.80;99.90
33717;DHT22;20046;50.746;7.072;2023-03-31T13:20:59;15.80;99.90
33717;DHT22;20046;50.746;7.072;2023-03-31T13:23:25;15.80;99.90
33717;DHT22;20046;50.746;7.072;2023-03-31T13:25:52;15.90;99.90
33717;DHT22;20046;50.746;7.072;2023-03-31T13:33:13;15.80;99.90
33717;DHT22;20046;50.746;7.072;2023-03-31T13:35:39;15.80;99.90
33717;DHT22;20046;50.746;7.072;2023-03-31T13:38:22;15.90;99.90
33717;DHT22;20046;50.746;7.072;2023-03-31T13:45:58;16.00;99.90
33717;DHT22;20046;50.746;7.072;2023-03-31T14:01:10;15.80;99.90
33717;DHT22;20046;50.746;7.072;2023-03-31T14:03:45;15.80;99.90
33717;DHT22;20046;50.746;7.072;2023-03-31T14:08:46;15.80;99.90
33717;DHT22;20046;50.746;7.072;2023-03-31T14:11:17;15.90;99.90
33717;DHT22;20046;50.746;7.072;2023-03-31T14:13:57;15.90;99.90
33717;DHT22;20046;50.746;7.072;2023-03-31T14:16:23;15.90;99.90
33717;DHT22;20046;50.746;7.072;2023-03-31T14:18:49;15.80;99.90
33717;DHT22;20046;50.746;7.072;2023-03-31T14:22:02;15.70;99.90
33717;DHT22;20046;50.746;7.072;2023-03-31T14:31:48;15.40;99.90
33717;DHT22;20046;50.746;7.072;2023-03-31T14:37:05;15.40;99.90
33717;DHT22;20046;50.746;7.072;2023-03-31T14:39:34;15.40;99.90
33717;DHT22;20046;50.746;7.072;2023-03-31T14:42:20;15.40;99.90
33717;DHT22;20046;50.746;7.072;2023-03-31T14:44:46;15.30;99.90
33717;DHT22;20046;50.746;7.072;2023-03-31T14:47:25;15.30;99.90
33717;DHT22;20046;50.746;7.072;2023-03-31T14:49:59;15.40;99.90
33717;DHT22;20046;50.746;7.072;2023-03-31T14:52:28;15.40;99.90
33717;DHT22;20046;50.746;7.072;2023-03-31T14:54:53;15.40;99.90
33717;DHT22;20046;50.746;7.072;2023-03-31T14:57:22;15.40;99.90
33717;DHT22;20046;50.746;7.072;2023-03-31T14:59:50;15.40;99.90
33717;DHT22;20046;50.746;7.072;2023-03-31T15:02:18;15.50;99.90
33717;DHT22;20046;50.746;7.072;2023-03-31T15:04:45;15.50;99.90
33717;DHT22;20046;50.746;7.072;2023-03-31T15:09:48;15.50;99.90
33717;DHT22;20046;50.746;7.072;2023-03-31T15:12:15;15.40;99.90
33717;DHT22;20046;50.746;7.072;2023-03-31T15:14:44;15.40;99.90
33717;DHT22;20046;50.746;7.072;2023-03-31T15:17:24;15.40;99.90
33717;DHT22;20046;50.746;7.072;2023-03-31T15:19:54;15.30;99.90
33717;DHT22;20046;50.746;7.072;2023-03-31T15:22:21;15.20;99.90
33717;DHT22;20046;50.746;7.072;2023-03-31T15:24:46;15.20;99.90
33717;DHT22;20046;50.746;7.072;2023-03-31T15:27:13;15.20;99.90
33717;DHT22;20046;50.746;7.072;2023-03-31T15:29:42;15.20;99.90
33717;DHT22;20046;50.746;7.072;2023-03-31T15:32:16;15.20;99.90
33717;DHT22;20046;50.746;7.072;2023-03-31T15:34:42;15.10;99.90
33717;DHT22;20046;50.746;7.072;2023-03-31T15:37:08;15.10;99.90
33717;DHT22;20046;50.746;7.072;2023-03-31T15:39:34;15.00;99.90
33717;DHT22;20046;50.746;7.072;2023-03-31T15:42:00;15.00;99.90
33717;DHT22;20046;50.746;7.072;2023-03-31T15:44:35;14.90;99.90
33717;DHT22;20046;50.746;7.072;2023-03-31T15:49:30;14.80;99.90
33717;DHT22;20046;50.746;7.072;2023-03-31T15:51:56;14.80;99.90
33717;DHT22;20046;50.746;7.072;2023-03-31T15:54:35;14.80;99.90
33717;DHT22;20046;50.746;7.072;2023-03-31T15:57:02;14.70;99.90
33717;DHT22;20046;50.746;7.072;2023-03-31T15:59:29;14.70;99.90
33717;DHT22;20046;50.746;7.072;2023-03-31T16:01:55;14.60;99.90
33717;DHT22;20046;50.746;7.072;2023-03-31T16:04:21;14.60;99.90
33717;DHT22;20046;50.746;7.072;2023-03-31T16:11:47;14.50;99.90
33717;DHT22;20046;50.746;7.072;2023-03-31T16:16:44;14.40;99.90
33717;DHT22;20046;50.746;7.072;2023-03-31T16:19:11;14.40;99.90
33717;DHT22;20046;50.746;7.072;2023-03-31T16:21:38;14.40;99.90
33717;DHT22;20046;50.746;7.072;2023-03-31T16:24:04;14.40;99.90
33717;DHT22;20046;50.746;7.072;2023-03-31T16:26:30;14.40;99.90
33717;DHT22;20046;50.746;7.072;2023-03-31T16:28:56;14.40;99.90
33717;DHT22;20046;50.746;7.072;2023-03-31T16:31:40;14.40;99.90
33717;DHT22;20046;50.746;7.072;2023-03-31T16:34:06;14.40;99.90
33717;DHT22;20046;50.746;7.072;2023-03-31T16:36:32;14.30;99.90
33717;DHT22;20046;50.746;7.072;2023-03-31T16:38:58;14.30;99.90
33717;DHT22;20046;50.746;7.072;2023-03-31T16:41:24;14.30;99.90
33717;DHT22;20046;50.746;7.072;2023-03-31T16:43:51;14.30;99.90
33717;DHT22;20046;50.746;7.072;2023-03-31T16:46:18;14.30;99.90
33717;DHT22;20046;50.746;7.072;2023-03-31T16:48:43;14.30;99.90
33717;DHT22;20046;50.746;7.072;2023-03-31T16:51:09;14.20;99.90
33717;DHT22;20046;50.746;7.072;2023-03-31T16:53:35;14.20;99.90
33717;DHT22;20046;50.746;7.072;2023-03-31T16:56:02;14.20;99.90
33717;DHT22;20046;50.746;7.072;2023-03-31T16:58:27;14.20;99.90
33717;DHT22;20046;50.746;7.072;2023-03-31T17:00:53;14.10;99.90
33717;DHT22;20046;50.746;7.072;2023-03-31T17:03:20;14.10;99.90
33717;DHT22;20046;50.746;7.072;2023-03-31T17:05:49;14.00;99.90
33717;DHT22;20046;50.746;7.072;2023-03-31T17:08:17;14.00;99.90
33717;DHT22;20046;50.746;7.072;2023-03-31T17:10:49;14.00;99.90
33717;DHT22;20046;50.746;7.072;2023-03-31T17:13:15;13.90;99.90
33717;DHT22;20046;50.746;7.072;2023-03-31T17:15:41;13.90;99.90
33717;DHT22;20046;50.746;7.072;2023-03-31T17:18:06;13.80;99.90
33717;DHT22;20046;50.746;7.072;2023-03-31T17:20:31;13.80;99.90
33717;DHT22;20046;50.746;7.072;2023-03-31T17:22:58;13.80;99.90
33717;DHT22;20046;50.746;7.072;2023-03-31T17:25:24;13.70;99.90
33717;DHT22;20046;50.746;7.072;2023-03-31T17:27:50;13.70;99.90
33717;DHT22;20046;50.746;7.072;2023-03-31T17:30:16;13.60;99.90
33717;DHT22;20046;50.746;7.072;2023-03-31T17:32:41;13.60;99.90
33717;DHT22;20046;50.746;7.072;2023-03-31T17:35:07;13.50;99.90
33717;DHT22;20046;50.746;7.072;2023-03-31T17:37:34;13.50;99.90
33717;DHT22;20046;50.746;7.072;2023-03-31T17:40:00;13.50;99.90
33717;DHT22;20046;50.746;7.072;2023-03-31T17:42:25;13.40;99.90
33717;DHT22;20046;50.746;7.072;2023-03-31T17:44:51;13.40;99.90
33717;DHT22;20046;50.746;7.072;2023-03-31T17:47:17;13.40;99.90
33717;DHT22;20046;50.746;7.072;2023-03-31T17:49:44;13.30;99.90
33717;DHT22;20046;50.746;7.072;2023-03-31T17:52:12;13.30;99.90
33717;DHT22;20046;50.746;7.072;2023-03-31T17:54:38;13.30;99.90
33717;DHT22;20046;50.746;7.072;2023-03-31T17:57:03;13.20;99.90
33717;DHT22;20046;50.746;7.072;2023-03-31T17:59:29;13.20;99.90
33717;DHT22;20046;50.746;7.072;2023-03-31T18:01:54;13.10;99.90
33717;DHT22;20046;50.746;7.072;2023-03-31T18:04:20;13.10;99.90
33717;DHT22;20046;50.746;7.072;2023-03-31T18:06:45;13.10;99.90
33717;DHT22;20046;50.746;7.072;2023-03-31T18:09:13;13.10;99.90
33717;DHT22;20046;50.746;7.072;2023-03-31T18:11:38;13.10;99.90
33717;DHT22;20046;50.746;7.072;2023-03-31T18:14:04;13.00;99.90
33717;DHT22;20046;50.746;7.072;2023-03-31T18:16:30;13.00;99.90
33717;DHT22;20046;50.746;7.072;2023-03-31T18:18:56;13.00;99.90
33717;DHT22;20046;50.746;7.072;2023-03-31T18:21:22;13.00;99.90
33717;DHT22;20046;50.746;7.072;2023-03-31T18:23:48;12.90;99.90
33717;DHT22;20046;50.746;7.072;2023-03-31T18:26:17;12.90;99.90
33717;DHT22;20046;50.746;7.072;2023-03-31T18:28:43;12.90;99.90
33717;DHT22;20046;50.746;7.072;2023-03-31T18:31:09;12.90;99.90
33717;DHT22;20046;50.746;7.072;2023-03-31T18:33:35;12.90;99.90
33717;DHT22;20046;50.746;7.072;2023-03-31T18:36:00;12.90;99.90
33717;DHT22;20046;50.746;7.072;2023-03-31T18:38:26;12.90;99.90
33717;DHT22;20046;50.746;7.072;2023-03-31T18:40:53;12.90;99.90